createdAt,value
2023-03-26T00:01:39.366Z,36.28
2023-03-26T00:04:07.763Z,33.92
2023-03-26T00:06:39.285Z,34.00
2023-03-26T00:09:09.841Z,33.27
2023-03-26T00:11:37.029Z,30.73
2023-03-26T00:14:05.750Z,31.25
2023-03-26T00:16:33.404Z,32.65
2023-03-26T00:19:01.883Z,31.02
2023-03-26T00:21:30.975Z,31.33
2023-03-26T00:24:04.590Z,31.38
2023-03-26T00:26:38.493Z,31.15
2023-03-26T00:29:07.010Z,30.73
2023-03-26T00:31:35.929Z,26.63
2023-03-26T00:34:03.963Z,24.53
2023-03-26T00:36:31.491Z,24.20
2023-03-26T00:38:58.832Z,23.95
2023-03-26T00:41:31.154Z,23.98
2023-03-26T00:43:59.950Z,25.05
2023-03-26T00:46:29.787Z,23.87
2023-03-26T00:48:59.079Z,25.33
2023-03-26T00:51:28.285Z,23.55
2023-03-26T00:53:55.986Z,24.45
2023-03-26T00:56:23.272Z,21.88
2023-03-26T00:58:50.679Z,23.90
2023-03-26T01:01:27.520Z,22.05
2023-03-26T01:04:08.210Z,23.55
2023-03-26T01:06:39.147Z,28.10
2023-03-26T01:09:16.315Z,24.30
2023-03-26T01:11:44.393Z,25.17
2023-03-26T01:14:16.305Z,24.55
2023-03-26T01:16:50.139Z,25.60
2023-03-26T01:19:45.272Z,25.58
2023-03-26T01:22:22.134Z,24.08
2023-03-26T01:24:53.908Z,23.53
2023-03-26T01:27:35.908Z,23.88
2023-03-26T01:30:10.605Z,25.02
2023-03-26T01:32:47.724Z,23.65
2023-03-26T01:35:29.166Z,25.27
2023-03-26T01:38:02.096Z,26.13
2023-03-26T01:40:43.125Z,25.50
2023-03-26T01:43:24.539Z,23.67
2023-03-26T01:45:52.833Z,25.23
2023-03-26T01:48:20.783Z,26.67
2023-03-26T01:50:49.107Z,27.13
2023-03-26T01:53:16.185Z,27.05
2023-03-26T01:56:02.479Z,26.08
2023-03-26T01:58:37.346Z,26.08
2023-03-26T02:01:19.743Z,25.40
2023-03-26T02:04:11.400Z,26.63
2023-03-26T02:06:46.250Z,27.25
2023-03-26T02:09:20.371Z,28.58
2023-03-26T02:11:49.007Z,28.27
2023-03-26T02:14:16.564Z,25.00
2023-03-26T02:16:47.054Z,26.83
2023-03-26T02:19:21.820Z,25.23
2023-03-26T02:21:51.727Z,25.65
2023-03-26T02:24:20.634Z,23.30
2023-03-26T02:26:49.988Z,26.20
2023-03-26T02:29:20.533Z,25.83
2023-03-26T02:31:49.687Z,26.48
2023-03-26T02:34:17.210Z,32.50
2023-03-26T02:36:52.583Z,29.33
2023-03-26T02:39:19.843Z,29.33
2023-03-26T02:41:54.909Z,28.67
2023-03-26T02:44:22.156Z,31.75
2023-03-26T02:46:58.314Z,33.03
2023-03-26T02:49:44.081Z,27.70
2023-03-26T02:52:18.761Z,26.75
2023-03-26T02:54:48.536Z,31.97
2023-03-26T02:57:20.940Z,26.52
2023-03-26T03:00:26.582Z,34.30
2023-03-26T03:03:26.689Z,54.88
2023-03-26T03:05:59.605Z,35.70
2023-03-26T03:08:46.598Z,33.53
2023-03-26T03:11:22.290Z,31.02
2023-03-26T03:13:51.515Z,31.80
2023-03-26T03:16:24.816Z,35.58
2023-03-26T03:18:57.768Z,40.28
2023-03-26T03:21:36.265Z,46.67
2023-03-26T03:24:03.998Z,43.10
2023-03-26T03:26:36.620Z,38.95
2023-03-26T03:29:22.024Z,41.83
2023-03-26T03:31:49.558Z,37.05
2023-03-26T03:34:33.474Z,35.13
2023-03-26T03:37:00.782Z,32.17
2023-03-26T03:39:35.030Z,34.10
2023-03-26T03:42:02.438Z,32.25
2023-03-26T03:44:29.835Z,31.17
2023-03-26T03:46:57.428Z,28.23
2023-03-26T03:49:24.512Z,31.92
2023-03-26T03:51:51.789Z,28.65
2023-03-26T03:54:28.605Z,33.30
2023-03-26T03:57:10.235Z,31.13
2023-03-26T03:59:53.206Z,30.93
2023-03-26T04:02:26.608Z,34.42
2023-03-26T04:04:58.571Z,35.72
2023-03-26T04:07:26.759Z,32.47
2023-03-26T04:10:08.848Z,30.27
2023-03-26T04:12:54.576Z,28.10
2023-03-26T04:15:36.318Z,35.45
2023-03-26T04:18:04.051Z,41.58
2023-03-26T04:20:32.281Z,32.70
2023-03-26T04:23:00.724Z,29.27
2023-03-26T04:25:30.553Z,30.50
2023-03-26T04:28:08.732Z,34.08
2023-03-26T04:30:49.038Z,29.98
2023-03-26T04:33:33.751Z,34.42
2023-03-26T04:36:03.197Z,33.65
2023-03-26T04:38:45.984Z,35.17
2023-03-26T04:41:15.953Z,34.40
2023-03-26T04:43:53.602Z,34.30
2023-03-26T04:46:33.807Z,34.45
2023-03-26T04:49:11.139Z,39.20
2023-03-26T04:51:42.042Z,47.07
2023-03-26T04:54:29.123Z,42.13
2023-03-26T04:57:06.305Z,44.42
2023-03-26T04:59:43.125Z,46.30
2023-03-26T05:02:14.190Z,47.63
2023-03-26T05:04:59.330Z,47.87
2023-03-26T05:07:30.433Z,58.28
2023-03-26T05:10:03.567Z,57.28
2023-03-26T05:12:52.775Z,61.08
2023-03-26T05:15:28.472Z,58.53
2023-03-26T05:18:16.903Z,61.23
2023-03-26T05:20:48.735Z,60.17
2023-03-26T05:23:15.761Z,56.55
2023-03-26T05:25:47.290Z,57.55
2023-03-26T05:28:24.818Z,59.58
2023-03-26T05:30:56.528Z,57.87
2023-03-26T05:33:27.268Z,58.75
2023-03-26T05:36:08.067Z,58.47
2023-03-26T05:38:35.953Z,50.55
2023-03-26T05:41:08.291Z,56.60
2023-03-26T05:43:37.657Z,59.60
2023-03-26T05:46:12.483Z,58.35
2023-03-26T05:48:39.722Z,58.83
2023-03-26T05:51:08.273Z,61.95
2023-03-26T05:53:39.580Z,61.13
2023-03-26T05:56:26.596Z,68.40
2023-03-26T05:59:12.601Z,65.18
2023-03-26T06:01:58.102Z,61.42
2023-03-26T06:04:46.072Z,59.45
2023-03-26T06:07:34.105Z,56.75
2023-03-26T06:10:18.398Z,54.37
2023-03-26T06:12:46.572Z,58.85
2023-03-26T06:15:14.058Z,59.17
2023-03-26T06:17:58.553Z,62.20
2023-03-26T06:20:37.676Z,76.30
2023-03-26T06:23:16.228Z,67.07
2023-03-26T06:26:01.867Z,74.57
2023-03-26T06:28:58.304Z,72.13
2023-03-26T06:31:44.175Z,76.88
2023-03-26T06:34:16.284Z,61.53
2023-03-26T06:36:43.269Z,55.30
2023-03-26T06:39:10.751Z,62.17
2023-03-26T06:41:45.430Z,54.05
2023-03-26T06:44:39.322Z,44.38
2023-03-26T06:47:24.902Z,39.63
2023-03-26T06:50:12.038Z,41.13
2023-03-26T06:53:05.072Z,46.55
2023-03-26T06:55:54.105Z,49.63
2023-03-26T06:58:39.466Z,57.75
2023-03-26T07:01:21.934Z,42.13
2023-03-26T07:04:07.361Z,52.60
2023-03-26T07:06:52.977Z,56.75
2023-03-26T07:09:38.456Z,34.95
2023-03-26T07:12:44.123Z,32.65
2023-03-26T07:15:37.314Z,35.75
2023-03-26T07:18:10.473Z,37.43
2023-03-26T07:20:39.695Z,35.65
2023-03-26T07:23:07.500Z,40.28
2023-03-26T07:25:53.022Z,33.00
2023-03-26T07:29:04.666Z,30.45
2023-03-26T07:31:48.171Z,30.60
2023-03-26T07:34:55.933Z,42.92
2023-03-26T07:37:39.735Z,31.65
2023-03-26T07:40:36.165Z,31.55
2023-03-26T07:43:41.704Z,36.85
2023-03-26T07:46:12.164Z,23.77
2023-03-26T07:48:51.937Z,17.55
2023-03-26T07:51:34.599Z,18.33
2023-03-26T07:54:13.382Z,23.02
2023-03-26T07:57:06.864Z,36.15
2023-03-26T07:59:51.177Z,25.43
2023-03-26T08:02:52.269Z,28.60
2023-03-26T08:06:02.075Z,20.52
2023-03-26T08:08:40.371Z,26.65
2023-03-26T08:11:58.357Z,20.10
2023-03-26T08:14:25.372Z,16.27
2023-03-26T08:17:04.358Z,18.50
2023-03-26T08:19:40.929Z,14.50
2023-03-26T08:22:20.905Z,25.38
2023-03-26T08:25:20.148Z,15.07
2023-03-26T08:27:55.947Z,25.00
2023-03-26T08:30:25.569Z,22.17
2023-03-26T08:33:00.008Z,15.95
2023-03-26T08:35:28.668Z,14.80
2023-03-26T08:37:55.916Z,17.23
2023-03-26T08:40:58.362Z,15.90
2023-03-26T08:43:31.253Z,16.30
2023-03-26T08:46:17.132Z,20.33
2023-03-26T08:49:16.888Z,20.45
2023-03-26T08:52:00.740Z,24.52
2023-03-26T08:54:57.116Z,16.43
2023-03-26T08:57:52.474Z,15.20
2023-03-26T09:00:37.989Z,13.85
2023-03-26T09:03:25.540Z,18.08
2023-03-26T09:06:17.070Z,14.27
2023-03-26T09:09:04.695Z,13.77
2023-03-26T09:11:54.656Z,11.73
2023-03-26T09:14:46.208Z,18.23
2023-03-26T09:17:28.648Z,13.30
2023-03-26T09:20:02.640Z,15.60
2023-03-26T09:22:32.865Z,12.30
2023-03-26T09:25:14.752Z,12.05
2023-03-26T09:28:22.035Z,13.13
2023-03-26T09:31:07.725Z,14.77
2023-03-26T09:33:53.989Z,12.57
2023-03-26T09:36:45.970Z,12.90
2023-03-26T09:39:39.273Z,12.85
2023-03-26T09:42:24.630Z,13.85
2023-03-26T09:45:10.704Z,14.32
2023-03-26T09:47:56.481Z,13.93
2023-03-26T09:50:56.590Z,12.03
2023-03-26T09:53:41.829Z,12.30
2023-03-26T09:56:24.034Z,11.20
2023-03-26T09:59:09.373Z,10.68
2023-03-26T10:02:04.628Z,11.48
2023-03-26T10:05:04.843Z,12.53
2023-03-26T10:07:40.847Z,14.30
2023-03-26T10:10:45.165Z,12.70
2023-03-26T10:13:18.466Z,13.95
2023-03-26T10:16:24.625Z,12.82
2023-03-26T10:19:10.545Z,12.83
2023-03-26T10:21:51.339Z,14.05
2023-03-26T10:24:30.486Z,13.68
2023-03-26T10:27:08.397Z,15.48
2023-03-26T10:30:16.864Z,16.17
2023-03-26T10:33:05.289Z,14.53
2023-03-26T10:35:42.112Z,15.80
2023-03-26T10:38:47.025Z,19.23
2023-03-26T10:41:23.040Z,16.85
2023-03-26T10:44:27.723Z,19.38
2023-03-26T10:47:01.198Z,19.03
2023-03-26T10:49:54.097Z,17.98
2023-03-26T10:52:34.652Z,21.35
2023-03-26T10:55:12.186Z,19.33
2023-03-26T10:57:52.271Z,18.02
2023-03-26T11:00:25.574Z,17.87
2023-03-26T11:03:20.842Z,20.67
2023-03-26T11:05:58.364Z,19.15
2023-03-26T11:08:52.812Z,19.40
2023-03-26T11:11:32.690Z,23.67
2023-03-26T11:14:13.692Z,21.53
2023-03-26T11:16:49.643Z,21.35
2023-03-26T11:19:37.313Z,22.65
2023-03-26T11:22:32.328Z,23.48
2023-03-26T11:25:05.744Z,22.27
2023-03-26T11:27:44.662Z,22.53
2023-03-26T11:30:17.628Z,23.85
2023-03-26T11:32:48.471Z,24.90
2023-03-26T11:35:40.477Z,24.20
2023-03-26T11:38:33.651Z,24.55
2023-03-26T11:41:03.801Z,24.00
2023-03-26T11:44:28.898Z,25.95
2023-03-26T11:47:01.741Z,26.42
2023-03-26T11:49:29.627Z,28.33
2023-03-26T11:51:56.927Z,29.60
2023-03-26T11:54:23.987Z,29.73
2023-03-26T11:57:12.283Z,28.75
2023-03-26T11:59:56.367Z,29.55
2023-03-26T12:02:29.920Z,28.27
2023-03-26T12:05:12.988Z,31.38
2023-03-26T12:07:52.937Z,30.67
2023-03-26T12:10:33.007Z,29.80
2023-03-26T12:13:03.428Z,33.17
2023-03-26T12:15:32.368Z,25.10
2023-03-26T12:18:17.731Z,26.35
2023-03-26T12:20:45.344Z,28.90
2023-03-26T12:23:42.621Z,24.98
2023-03-26T12:26:19.327Z,28.42
2023-03-26T12:28:49.734Z,26.80
2023-03-26T12:31:19.677Z,30.67
2023-03-26T12:34:35.559Z,27.13
2023-03-26T12:37:05.030Z,30.25
2023-03-26T12:40:10.555Z,26.10
2023-03-26T12:44:49.991Z,27.20
2023-03-26T12:45:31.467Z,24.65
2023-03-26T12:48:03.873Z,26.23
2023-03-26T12:50:57.783Z,26.48
2023-03-26T12:53:53.646Z,23.33
2023-03-26T12:56:37.003Z,26.35
2023-03-26T12:59:42.996Z,25.50
2023-03-26T13:02:48.765Z,25.83
2023-03-26T13:05:34.499Z,26.95
2023-03-26T13:08:25.988Z,24.98
2023-03-26T13:11:17.886Z,24.35
2023-03-26T13:13:52.970Z,24.60
2023-03-26T13:16:44.934Z,21.87
2023-03-26T13:19:34.379Z,23.90
2023-03-26T13:22:25.740Z,22.10
2023-03-26T13:25:25.132Z,26.00
2023-03-26T13:28:26.745Z,21.77
2023-03-26T13:31:07.651Z,20.77
2023-03-26T13:33:46.996Z,24.65
2023-03-26T13:36:31.890Z,22.73
2023-03-26T13:39:08.380Z,22.52
2023-03-26T13:41:47.430Z,23.88
2023-03-26T13:44:49.705Z,25.80
2023-03-26T13:47:22.661Z,23.15
2023-03-26T13:50:02.772Z,21.10
2023-03-26T13:52:40.078Z,21.52
2023-03-26T13:55:27.398Z,23.02
2023-03-26T13:58:12.403Z,22.47
2023-03-26T14:01:12.477Z,21.25
2023-03-26T14:04:01.081Z,21.95
2023-03-26T14:06:59.220Z,21.02
2023-03-26T14:09:43.139Z,25.02
2023-03-26T14:12:44.763Z,20.53
2023-03-26T14:15:16.604Z,21.48
2023-03-26T14:17:59.015Z,20.95
2023-03-26T14:20:50.374Z,19.73
2023-03-26T14:23:20.328Z,20.42
2023-03-26T14:26:08.429Z,19.97
2023-03-26T14:28:54.083Z,17.00
2023-03-26T14:31:38.802Z,16.70
2023-03-26T14:34:38.629Z,17.33
2023-03-26T14:37:27.019Z,20.60
2023-03-26T14:40:15.190Z,17.80
2023-03-26T14:43:08.114Z,21.17
2023-03-26T14:45:41.521Z,16.75
2023-03-26T14:48:27.964Z,16.98
2023-03-26T14:51:07.339Z,16.73
2023-03-26T14:53:40.519Z,16.80
2023-03-26T14:56:15.664Z,16.15
2023-03-26T14:59:04.754Z,18.55
2023-03-26T15:01:59.146Z,15.60
2023-03-26T15:04:35.401Z,17.27
2023-03-26T15:07:39.153Z,17.57
2023-03-26T15:10:54.032Z,16.52
2023-03-26T15:13:55.092Z,18.13
2023-03-26T15:17:11.070Z,15.07
2023-03-26T15:20:00.089Z,14.75
2023-03-26T15:22:45.791Z,13.53
2023-03-26T15:25:33.980Z,15.23
2023-03-26T15:28:19.728Z,15.00
2023-03-26T15:31:18.757Z,17.35
2023-03-26T15:34:12.310Z,15.77
2023-03-26T15:36:59.062Z,13.93
2023-03-26T15:40:10.037Z,16.40
2023-03-26T15:42:58.764Z,17.90
2023-03-26T15:45:48.090Z,14.50
2023-03-26T15:48:59.436Z,13.63
2023-03-26T15:51:46.365Z,13.40
2023-03-26T15:54:33.318Z,14.70
2023-03-26T15:57:24.985Z,14.82
2023-03-26T15:59:52.381Z,17.08
2023-03-26T16:02:58.312Z,14.43
2023-03-26T16:06:06.279Z,16.00
2023-03-26T16:09:11.706Z,13.85
2023-03-26T16:11:54.318Z,12.57
2023-03-26T16:14:24.627Z,14.15
2023-03-26T16:16:56.080Z,13.25
2023-03-26T16:19:23.150Z,11.87
2023-03-26T16:22:00.380Z,12.52
2023-03-26T16:24:30.809Z,14.32
2023-03-26T16:27:08.340Z,16.00
2023-03-26T16:30:01.131Z,12.70
2023-03-26T16:32:34.861Z,13.87
2023-03-26T16:35:24.102Z,14.15
2023-03-26T16:38:05.974Z,14.35
2023-03-26T16:40:36.249Z,14.10
2023-03-26T16:43:31.006Z,13.82
2023-03-26T16:46:20.049Z,14.03
2023-03-26T16:48:55.629Z,16.58
2023-03-26T16:51:53.799Z,19.60
2023-03-26T16:54:39.835Z,13.18
2023-03-26T16:57:45.606Z,14.32
2023-03-26T17:00:46.240Z,13.63
2023-03-26T17:03:27.208Z,27.02
2023-03-26T17:05:54.176Z,13.27
2023-03-26T17:08:42.251Z,13.85
2023-03-26T17:11:38.569Z,13.63
2023-03-26T17:14:23.628Z,12.90
2023-03-26T17:17:02.760Z,14.48
2023-03-26T17:19:42.027Z,14.00
2023-03-26T17:22:42.557Z,12.65
2023-03-26T17:25:52.747Z,14.13
2023-03-26T17:29:04.248Z,15.43
2023-03-26T17:31:59.649Z,15.38
2023-03-26T17:34:38.575Z,16.95
2023-03-26T17:37:21.559Z,14.80
2023-03-26T17:39:58.014Z,15.65
2023-03-26T17:42:33.162Z,14.07
2023-03-26T17:45:02.856Z,17.00
2023-03-26T17:47:41.674Z,14.80
2023-03-26T17:50:14.725Z,13.63
2023-03-26T17:53:05.368Z,20.25
2023-03-26T17:55:36.629Z,14.70
2023-03-26T17:58:06.932Z,13.13
2023-03-26T18:00:47.305Z,13.82
2023-03-26T18:03:31.248Z,13.55
2023-03-26T18:06:11.288Z,13.88
2023-03-26T18:08:56.862Z,13.50
2023-03-26T18:11:26.782Z,16.33
2023-03-26T18:14:38.880Z,12.88
2023-03-26T18:17:07.320Z,14.02
2023-03-26T18:19:53.628Z,14.75
2023-03-26T18:22:27.834Z,12.50
2023-03-26T18:24:59.900Z,13.88
2023-03-26T18:27:38.628Z,10.55
2023-03-26T18:30:16.344Z,11.07
2023-03-26T18:33:05.293Z,14.05
2023-03-26T18:35:39.802Z,11.10
2023-03-26T18:38:14.424Z,11.15
2023-03-26T18:40:44.275Z,11.18
2023-03-26T18:43:32.307Z,10.00
2023-03-26T18:46:03.007Z,11.38
2023-03-26T18:48:30.426Z,11.77
2023-03-26T18:51:04.791Z,10.95
2023-03-26T18:53:39.919Z,10.57
2023-03-26T18:56:31.910Z,14.27
2023-03-26T18:59:00.644Z,10.82
2023-03-26T19:01:32.176Z,11.87
2023-03-26T19:04:07.171Z,13.13
2023-03-26T19:06:40.072Z,10.82
2023-03-26T19:09:27.933Z,11.20
2023-03-26T19:12:05.519Z,12.35
2023-03-26T19:14:37.154Z,10.03
2023-03-26T19:17:07.132Z,12.90
2023-03-26T19:19:37.156Z,12.90
2023-03-26T19:22:06.123Z,12.10
2023-03-26T19:24:34.353Z,11.70
2023-03-26T19:27:02.848Z,9.77
2023-03-26T19:29:35.262Z,11.63
2023-03-26T19:32:15.571Z,10.10
2023-03-26T19:34:45.496Z,9.32
2023-03-26T19:37:31.555Z,8.55
2023-03-26T19:40:14.381Z,9.23
2023-03-26T19:42:44.786Z,10.15
2023-03-26T19:45:18.117Z,10.45
2023-03-26T19:47:48.667Z,10.32
2023-03-26T19:50:26.122Z,8.65
2023-03-26T19:53:17.294Z,10.53
2023-03-26T19:55:59.294Z,9.93
2023-03-26T19:58:27.401Z,11.00
2023-03-26T20:00:56.543Z,10.50
2023-03-26T20:03:46.369Z,11.57
2023-03-26T20:06:18.539Z,12.37
2023-03-26T20:08:46.649Z,12.45
2023-03-26T20:11:20.614Z,16.17
2023-03-26T20:13:48.610Z,14.18
2023-03-26T20:16:34.359Z,11.77
2023-03-26T20:19:02.571Z,10.80
2023-03-26T20:21:32.407Z,11.10
2023-03-26T20:23:59.579Z,13.07
2023-03-26T20:26:26.594Z,11.93
2023-03-26T20:28:53.973Z,13.23
2023-03-26T20:31:25.185Z,14.80
2023-03-26T20:33:54.035Z,24.42
2023-03-26T20:36:34.173Z,16.70
2023-03-26T20:39:08.530Z,21.08
2023-03-26T20:41:38.277Z,20.70
2023-03-26T20:44:13.877Z,18.20
2023-03-26T20:46:43.162Z,24.70
2023-03-26T20:49:11.688Z,25.40
2023-03-26T20:51:42.058Z,26.20
2023-03-26T20:54:21.566Z,22.10
2023-03-26T20:56:49.430Z,25.27
2023-03-26T20:59:21.835Z,25.63
2023-03-26T21:01:50.274Z,18.63
2023-03-26T21:04:17.947Z,20.20
2023-03-26T21:06:45.607Z,19.65
2023-03-26T21:09:18.370Z,21.83
2023-03-26T21:11:53.119Z,22.13
2023-03-26T21:14:26.140Z,21.10
2023-03-26T21:16:53.553Z,22.67
2023-03-26T21:19:21.205Z,21.20
2023-03-26T21:21:57.884Z,23.40
2023-03-26T21:24:33.249Z,22.85
2023-03-26T21:27:12.809Z,21.88
2023-03-26T21:29:40.372Z,24.17
2023-03-26T21:32:10.620Z,21.95
2023-03-26T21:34:42.121Z,21.70
2023-03-26T21:37:15.849Z,18.88
2023-03-26T21:39:44.962Z,19.95
2023-03-26T21:42:12.918Z,20.42
2023-03-26T21:44:40.209Z,20.25
2023-03-26T21:47:09.814Z,21.53
2023-03-26T21:49:38.615Z,19.48
2023-03-26T21:52:05.941Z,20.00
2023-03-26T21:54:33.555Z,18.08
2023-03-26T21:57:12.808Z,18.50
2023-03-26T22:00:01.377Z,16.17
2023-03-26T22:02:54.701Z,14.73
2023-03-26T22:05:48.363Z,15.90
2023-03-26T22:08:33.942Z,16.23
2023-03-26T22:11:01.528Z,16.23
2023-03-26T22:13:28.774Z,14.60
2023-03-26T22:15:56.969Z,20.05
2023-03-26T22:18:26.141Z,18.48
2023-03-26T22:20:53.385Z,18.95
2023-03-26T22:23:20.984Z,15.38
2023-03-26T22:25:48.123Z,20.17
2023-03-26T22:28:15.699Z,15.40
2023-03-26T22:30:42.801Z,14.90
2023-03-26T22:33:12.564Z,13.10
2023-03-26T22:35:42.095Z,11.38
2023-03-26T22:38:09.839Z,13.30
2023-03-26T22:40:37.041Z,10.70
2023-03-26T22:43:04.732Z,10.13
2023-03-26T22:45:32.674Z,11.75
2023-03-26T22:48:03.078Z,15.30
2023-03-26T22:50:31.529Z,11.07
2023-03-26T22:52:58.653Z,9.88
2023-03-26T22:55:29.050Z,9.63
2023-03-26T22:57:57.584Z,9.52
2023-03-26T23:00:26.642Z,8.13
2023-03-26T23:02:55.967Z,9.77
2023-03-26T23:05:23.789Z,10.15
2023-03-26T23:07:52.319Z,11.20
2023-03-26T23:10:19.496Z,10.93
2023-03-26T23:12:46.716Z,12.77
2023-03-26T23:15:14.190Z,14.37
2023-03-26T23:17:41.499Z,13.75
2023-03-26T23:20:14.758Z,12.48
2023-03-26T23:22:43.277Z,13.05
2023-03-26T23:25:11.817Z,12.27
2023-03-26T23:27:40.363Z,10.60
2023-03-26T23:30:08.328Z,11.35
2023-03-26T23:32:38.129Z,11.35
2023-03-26T23:35:06.177Z,11.52
2023-03-26T23:37:35.296Z,12.18
2023-03-26T23:40:07.522Z,11.77
2023-03-26T23:42:34.658Z,12.07
2023-03-26T23:45:02.168Z,12.98
2023-03-26T23:47:34.874Z,13.27
2023-03-26T23:50:05.440Z,11.70
2023-03-26T23:52:32.565Z,12.50
2023-03-26T23:55:02.793Z,12.05
2023-03-26T23:57:30.702Z,12.60
2023-03-26T23:59:58.467Z,12.25
